Time;durP1;ratioP1;P1;durP2;ratioP2;P2;SDS_P1;SDS_P2;PMS_P1;PMS_P2;Temp;Humidity;BMP_temperature;BMP_pressure;BME280_temperature;BME280_humidity;BME280_pressure;Samples;Min_cycle;Max_cycle;Signal;HPM_P1;HPM_P2
2023/01/14 00:01:25;;;;;;;10.50;2.00;;;26.50;99.90;;;;;;4975948;28;20175;-68
2023/01/14 00:03:54;;;;;;;7.03;1.23;;;27.30;99.90;;;;;;4975919;28;20237;-69
2023/01/14 00:06:25;;;;;;;7.23;2.17;;;28.20;99.90;;;;;;4976887;28;20223;-71
2023/01/14 00:08:57;;;;;;;4.67;1.90;;;28.70;99.90;;;;;;4976153;28;20261;-72
2023/01/14 00:14:12;;;;;;;5.23;1.67;;;27.60;99.90;;;;;;4976356;28;20653;-76
2023/01/14 00:16:39;;;;;;;4.37;1.30;;;27.30;99.90;;;;;;4975587;28;20223;-72
2023/01/14 00:19:07;;;;;;;4.77;1.27;;;27.60;99.90;;;;;;4975616;28;20278;-74
2023/01/14 00:21:35;;;;;;;4.67;1.30;;;27.80;99.90;;;;;;4975698;28;20210;-71
2023/01/14 00:24:02;;;;;;;7.27;1.67;;;28.20;99.90;;;;;;4958096;28;20187;-72
2023/01/14 00:26:30;;;;;;;5.00;1.50;;;28.10;99.90;;;;;;4975715;28;20215;-69
2023/01/14 00:28:57;;;;;;;6.97;1.40;;;28.30;99.90;;;;;;4975246;28;20250;-75
2023/01/14 00:31:27;;;;;;;6.87;1.27;;;28.70;99.90;;;;;;4975356;28;20633;-72
2023/01/14 00:33:57;;;;;;;4.07;1.40;;;29.00;99.90;;;;;;4975433;28;20182;-71
2023/01/14 00:36:26;;;;;;;4.73;1.10;;;29.40;99.90;;;;;;4975146;28;20195;-70
2023/01/14 00:38:55;;;;;;;9.23;1.53;;;29.70;99.90;;;;;;4975499;28;20187;-73
2023/01/14 00:41:25;;;;;;;3.43;1.17;;;30.10;99.90;;;;;;4975232;28;20186;-73
2023/01/14 00:43:55;;;;;;;5.47;1.57;;;30.60;99.90;;;;;;4975254;28;20203;-74
2023/01/14 00:46:34;;;;;;;6.50;1.10;;;30.00;99.90;;;;;;4975185;28;20215;-70
2023/01/14 00:49:03;;;;;;;5.27;1.37;;;29.60;99.90;;;;;;4975158;28;20648;-76
2023/01/14 00:51:31;;;;;;;5.10;1.50;;;29.60;99.90;;;;;;4975222;28;20529;-72
2023/01/14 00:54:01;;;;;;;2.77;1.20;;;29.80;99.90;;;;;;4975158;28;20194;-69
2023/01/14 00:56:29;;;;;;;6.33;1.60;;;30.40;99.90;;;;;;4975055;28;20175;-72
2023/01/14 00:58:57;;;;;;;4.10;1.50;;;31.20;99.90;;;;;;4974880;28;20285;-69
2023/01/14 01:01:24;;;;;;;5.57;1.20;;;32.30;99.90;;;;;;4975130;28;20176;-71
2023/01/14 01:03:54;;;;;;;3.83;1.20;;;32.30;99.90;;;;;;4974516;28;20187;-73
2023/01/14 01:06:24;;;;;;;5.80;1.40;;;31.30;99.90;;;;;;4974937;28;20219;-69
2023/01/14 01:08:56;;;;;;;4.50;1.40;;;30.80;99.90;;;;;;4975201;28;20565;-73
2023/01/14 01:11:24;;;;;;;4.37;1.37;;;30.70;99.90;;;;;;4974871;28;20186;-70
2023/01/14 01:13:51;;;;;;;2.40;1.17;;;30.70;99.90;;;;;;4957328;28;20197;-68
2023/01/14 01:16:24;;;;;;;4.20;1.20;;;31.00;99.90;;;;;;4974509;28;20246;-68
2023/01/14 01:18:53;;;;;;;4.63;0.90;;;30.90;99.90;;;;;;4974636;28;20203;-76
2023/01/14 01:21:21;;;;;;;4.13;1.13;;;30.10;99.90;;;;;;4974605;28;20262;-69
2023/01/14 01:27:10;;;;;;;2.97;0.73;;;29.50;99.90;;;;;;4973991;28;20202;-72
2023/01/14 01:29:38;;;;;;;5.20;0.97;;;29.30;99.90;;;;;;4957218;28;20286;-77
2023/01/14 01:32:05;;;;;;;4.27;0.80;;;29.10;99.90;;;;;;4974786;28;20194;-69
2023/01/14 01:34:33;;;;;;;4.63;0.90;;;29.30;99.90;;;;;;4974580;28;20206;-69
2023/01/14 01:37:00;;;;;;;2.97;0.73;;;29.40;99.90;;;;;;4974589;28;20183;-77
2023/01/14 01:39:27;;;;;;;5.17;1.10;;;29.60;99.90;;;;;;4974379;28;20179;-71
2023/01/14 01:41:55;;;;;;;2.70;0.70;;;29.90;99.90;;;;;;4974265;28;20179;-69
2023/01/14 01:44:22;;;;;;;7.40;1.40;;;29.90;99.90;;;;;;4974057;28;20198;-74
2023/01/14 01:46:49;;;;;;;2.27;0.90;;;29.70;99.90;;;;;;4974183;28;20552;-70
2023/01/14 01:49:29;;;;;;;5.03;1.20;;;29.80;99.90;;;;;;4974318;28;20185;-69
2023/01/14 01:52:01;;;;;;;7.03;1.67;;;29.60;99.90;;;;;;4974023;28;20527;-68
2023/01/14 01:54:39;;;;;;;7.23;1.27;;;29.30;99.90;;;;;;4974695;28;20587;-75
2023/01/14 01:57:10;;;;;;;2.73;0.87;;;28.90;99.90;;;;;;4974232;28;20171;-72
2023/01/14 01:59:42;;;;;;;4.87;1.53;;;28.60;99.90;;;;;;4974878;28;20171;-72
2023/01/14 02:02:09;;;;;;;5.17;1.27;;;28.80;99.90;;;;;;4974230;28;20183;-68
2023/01/14 02:04:37;;;;;;;6.73;1.40;;;28.70;99.90;;;;;;4973996;28;20200;-73
2023/01/14 02:07:15;;;;;;;6.80;1.40;;;28.70;99.90;;;;;;4973876;28;20179;-68
2023/01/14 02:09:43;;;;;;;4.67;1.07;;;28.70;99.90;;;;;;4974301;28;20178;-68
2023/01/14 02:12:38;;;;;;;4.23;1.40;;;29.00;99.90;;;;;;4974005;28;20261;-69
2023/01/14 02:15:34;;;;;;;4.40;1.43;;;29.20;99.90;;;;;;4974572;28;20241;-74
2023/01/14 02:18:18;;;;;;;5.37;1.93;;;29.10;99.90;;;;;;4978104;28;20190;-70
2023/01/14 02:21:04;;;;;;;4.60;1.40;;;29.20;99.90;;;;;;4977957;28;20171;-74
2023/01/14 02:23:52;;;;;;;6.10;1.53;;;29.30;99.90;;;;;;4978034;28;20222;-69
2023/01/14 02:26:47;;;;;;;4.07;1.40;;;29.00;99.90;;;;;;4977372;28;20234;-68
2023/01/14 02:29:26;;;;;;;5.50;1.27;;;28.80;99.90;;;;;;4978273;28;20533;-68
2023/01/14 02:32:11;;;;;;;4.23;1.00;;;29.20;99.90;;;;;;4977575;28;20188;-69
2023/01/14 02:34:59;;;;;;;4.97;1.20;;;29.60;99.90;;;;;;4978341;28;20187;-78
2023/01/14 02:37:32;;;;;;;4.13;1.33;;;29.30;99.90;;;;;;4977878;28;20179;-69
2023/01/14 02:40:02;;;;;;;5.77;1.63;;;29.80;99.90;;;;;;4977926;28;20586;-72
2023/01/14 02:45:51;;;;;;;2.93;0.97;;;29.70;99.90;;;;;;4977945;28;20294;-69
2023/01/14 02:48:21;;;;;;;7.83;1.60;;;29.80;99.90;;;;;;4977542;28;20189;-68
2023/01/14 02:50:49;;;;;;;5.97;1.40;;;29.60;99.90;;;;;;4977670;28;20176;-72
2023/01/14 02:53:20;;;;;;;3.40;1.10;;;29.90;99.90;;;;;;4977495;28;20217;-69
2023/01/14 02:55:49;;;;;;;7.53;1.47;;;30.40;99.90;;;;;;4977629;28;20176;-68
2023/01/14 02:58:37;;;;;;;5.57;1.57;;;30.70;99.90;;;;;;4977632;28;20298;-72
2023/01/14 03:01:33;;;;;;;4.07;1.20;;;30.70;99.90;;;;;;4977279;28;20251;-69
2023/01/14 03:04:22;;;;;;;3.97;1.03;;;30.00;99.90;;;;;;4975496;28;20195;-69
2023/01/14 03:07:18;;;;;;;4.50;1.40;;;29.90;99.90;;;;;;4977158;28;20278;-69
2023/01/14 03:09:55;;;;;;;4.23;1.30;;;29.50;99.90;;;;;;4977318;28;20179;-69
2023/01/14 03:12:54;;;;;;;5.57;1.90;;;29.10;99.90;;;;;;4976948;28;20179;-72
2023/01/14 03:15:40;;;;;;;6.63;1.50;;;29.00;99.90;;;;;;4964914;28;20598;-74
2023/01/14 03:18:31;;;;;;;3.53;1.40;;;29.00;99.90;;;;;;4975886;28;20183;-69
2023/01/14 03:21:15;;;;;;;5.77;1.50;;;28.60;99.90;;;;;;4976603;28;20184;-72
2023/01/14 03:24:01;;;;;;;5.13;1.60;;;28.40;99.90;;;;;;4976961;28;21038;-69
2023/01/14 03:26:32;;;;;;;5.90;1.53;;;28.40;99.90;;;;;;4975183;28;20221;-69
2023/01/14 03:29:06;;;;;;;4.70;1.33;;;28.70;99.90;;;;;;4975956;28;20180;-67
2023/01/14 03:31:38;;;;;;;4.97;1.17;;;28.80;99.90;;;;;;4958474;28;20194;-78
2023/01/14 03:34:15;;;;;;;3.83;1.10;;;28.90;99.90;;;;;;4975909;28;20274;-77
2023/01/14 03:36:47;;;;;;;3.17;1.50;;;28.60;99.90;;;;;;4975670;28;20187;-72
2023/01/14 03:39:23;;;;;;;7.63;1.30;;;28.40;99.90;;;;;;4975585;28;20210;-69
2023/01/14 03:44:46;;;;;;;9.13;1.67;;;28.90;99.90;;;;;;4975659;28;20218;-78
2023/01/14 03:47:14;;;;;;;4.93;1.50;;;29.40;99.90;;;;;;4975617;28;20550;-74
2023/01/14 03:49:42;;;;;;;4.07;1.30;;;29.50;99.90;;;;;;4975499;28;20621;-68
2023/01/14 03:52:18;;;;;;;7.20;1.63;;;29.70;99.90;;;;;;4975697;28;20522;-69
2023/01/14 03:55:08;;;;;;;4.33;1.83;;;30.40;99.90;;;;;;4976046;28;20263;-77
2023/01/14 03:58:01;;;;;;;4.47;1.10;;;30.40;99.90;;;;;;4975730;28;20179;-76
2023/01/14 04:00:38;;;;;;;4.93;1.40;;;30.20;99.90;;;;;;4975418;28;20179;-69
2023/01/14 04:03:12;;;;;;;12.20;1.63;;;30.00;99.90;;;;;;4975135;28;20187;-71
2023/01/14 04:05:40;;;;;;;5.77;1.30;;;30.00;99.90;;;;;;4974944;28;20214;-78
2023/01/14 04:08:08;;;;;;;4.87;1.10;;;30.50;99.90;;;;;;4975425;28;20270;-77
2023/01/14 04:10:36;;;;;;;2.03;0.93;;;30.50;99.90;;;;;;4975190;28;20182;-70
2023/01/14 04:15:49;;;;;;;6.87;1.50;;;30.10;99.90;;;;;;4887581;28;2562238;-72
2023/01/14 04:18:16;;;;;;;5.50;1.60;;;29.60;99.90;;;;;;4975923;28;20183;-69
2023/01/14 04:20:43;;;;;;;2.50;0.97;;;29.50;99.90;;;;;;4975879;28;20265;-69
2023/01/14 04:23:11;;;;;;;4.37;1.00;;;29.90;99.90;;;;;;4976010;28;20735;-74
2023/01/14 04:25:38;;;;;;;17.90;1.60;;;30.00;99.90;;;;;;4975714;28;20572;-75
2023/01/14 04:28:06;;;;;;;5.90;1.57;;;30.00;99.90;;;;;;4975953;28;20175;-68
2023/01/14 04:30:33;;;;;;;5.53;1.03;;;30.50;99.90;;;;;;4975549;28;20233;-72
2023/01/14 04:33:00;;;;;;;5.40;1.20;;;30.30;99.90;;;;;;4975612;28;20175;-76
2023/01/14 04:35:28;;;;;;;6.43;1.37;;;30.50;99.90;;;;;;4975548;28;20179;-72
2023/01/14 04:37:55;;;;;;;3.87;0.93;;;30.40;99.90;;;;;;4974778;28;20183;-69
2023/01/14 04:40:23;;;;;;;6.00;1.73;;;30.60;99.90;;;;;;4975275;28;20183;-69
2023/01/14 04:42:51;;;;;;;6.80;1.23;;;31.00;99.90;;;;;;4975562;28;20660;-77
2023/01/14 04:45:19;;;;;;;8.10;1.73;;;31.30;99.90;;;;;;4975373;28;20215;-69
2023/01/14 04:47:49;;;;;;;4.87;1.03;;;30.80;99.90;;;;;;4975399;28;20180;-74
2023/01/14 04:50:33;;;;;;;3.83;1.07;;;30.40;99.90;;;;;;4974963;28;20653;-70
2023/01/14 04:53:13;;;;;;;5.50;1.20;;;29.80;99.90;;;;;;4975112;28;20305;-72
2023/01/14 04:55:43;;;;;;;9.57;1.73;;;29.20;99.90;;;;;;4975133;28;20179;-68
2023/01/14 04:58:14;;;;;;;5.30;1.23;;;28.70;99.90;;;;;;4975475;28;20239;-69
2023/01/14 05:00:42;;;;;;;6.37;1.67;;;28.60;99.90;;;;;;4975139;28;20179;-68
2023/01/14 05:03:12;;;;;;;3.77;1.00;;;28.40;99.90;;;;;;4974911;28;20254;-73
2023/01/14 05:05:40;;;;;;;3.70;1.40;;;28.60;99.90;;;;;;4957462;28;20211;-78
2023/01/14 05:08:09;;;;;;;7.27;1.97;;;28.80;99.90;;;;;;4974868;28;20175;-69
2023/01/14 05:10:37;;;;;;;5.00;0.80;;;28.60;99.90;;;;;;4974847;28;20182;-70
2023/01/14 05:13:07;;;;;;;7.53;1.03;;;28.30;99.90;;;;;;4974833;28;20171;-68
2023/01/14 05:15:40;;;;;;;5.13;1.37;;;27.90;99.90;;;;;;4974614;28;20211;-76
2023/01/14 05:18:09;;;;;;;4.03;1.23;;;27.90;99.90;;;;;;4974933;28;20183;-70
2023/01/14 05:20:37;;;;;;;7.93;1.30;;;28.60;99.90;;;;;;4974572;28;20182;-77
2023/01/14 05:23:07;;;;;;;5.57;1.20;;;29.10;99.90;;;;;;4974805;28;20179;-68
2023/01/14 05:25:35;;;;;;;4.90;1.20;;;29.10;99.90;;;;;;4974978;28;20214;-75
2023/01/14 05:28:05;;;;;;;6.73;1.20;;;28.70;99.90;;;;;;4974751;28;20190;-67
2023/01/14 05:30:33;;;;;;;4.67;1.20;;;28.40;99.90;;;;;;4974697;28;20632;-73
2023/01/14 05:33:01;;;;;;;5.70;1.20;;;28.20;99.90;;;;;;4974545;28;20644;-71
2023/01/14 05:35:28;;;;;;;3.50;1.17;;;28.00;99.90;;;;;;4974616;28;20190;-69
2023/01/14 05:37:56;;;;;;;5.50;1.13;;;28.10;99.90;;;;;;4974602;28;20644;-71
2023/01/14 05:40:23;;;;;;;2.93;1.07;;;28.30;99.90;;;;;;4974410;28;20241;-71
2023/01/14 05:46:17;;;;;;;9.90;1.10;;;27.90;99.90;;;;;;4973906;28;20237;-69
2023/01/14 05:48:45;;;;;;;4.90;1.47;;;28.10;99.90;;;;;;4974421;28;20184;-69
2023/01/14 05:51:13;;;;;;;9.03;1.53;;;28.50;99.90;;;;;;4974300;28;20675;-69
2023/01/14 05:53:41;;;;;;;5.00;1.53;;;28.90;99.90;;;;;;4974426;28;20180;-71
2023/01/14 05:56:09;;;;;;;6.73;1.30;;;28.80;99.90;;;;;;4973921;28;20183;-68
2023/01/14 05:58:37;;;;;;;4.43;1.20;;;28.90;99.90;;;;;;4974048;28;20634;-72
2023/01/14 06:06:48;;;;;;;3.70;0.97;;;29.60;99.90;;;;;;4974099;28;20274;-74
2023/01/14 06:09:18;;;;;;;3.90;0.90;;;29.90;99.90;;;;;;4974190;28;20175;-76
2023/01/14 06:11:47;;;;;;;4.90;1.17;;;29.60;99.90;;;;;;4973855;28;20171;-68
2023/01/14 06:14:14;;;;;;;3.57;1.20;;;29.50;99.90;;;;;;4973981;28;20179;-69
2023/01/14 06:16:42;;;;;;;3.83;1.00;;;29.40;99.90;;;;;;4973449;28;20230;-73
2023/01/14 06:19:11;;;;;;;5.87;1.20;;;29.30;99.90;;;;;;4973879;28;20175;-66
2023/01/14 06:21:39;;;;;;;4.77;1.13;;;28.80;99.90;;;;;;4973879;28;20174;-69
2023/01/14 06:24:07;;;;;;;4.33;1.10;;;28.70;99.90;;;;;;4973883;28;20183;-72
2023/01/14 06:26:36;;;;;;;6.57;1.20;;;28.80;99.90;;;;;;4973573;28;20254;-74
2023/01/14 06:29:09;;;;;;;6.80;1.00;;;28.80;99.90;;;;;;4973758;28;20171;-68
2023/01/14 06:31:39;;;;;;;4.60;0.90;;;28.80;99.90;;;;;;4973775;28;20191;-74
2023/01/14 06:34:06;;;;;;;7.33;1.13;;;28.80;99.90;;;;;;4973784;28;20179;-71
2023/01/14 06:36:36;;;;;;;4.30;1.10;;;28.90;99.90;;;;;;4973832;28;20199;-68
2023/01/14 06:39:04;;;;;;;5.90;1.60;;;29.10;99.90;;;;;;4973879;28;20187;-67
2023/01/14 06:41:31;;;;;;;4.57;1.27;;;28.90;99.90;;;;;;4973854;28;20221;-68
2023/01/14 06:43:58;;;;;;;4.53;1.10;;;28.60;99.90;;;;;;4973634;28;20638;-67
2023/01/14 06:46:26;;;;;;;2.40;0.93;;;28.40;99.90;;;;;;4974096;28;20577;-68
2023/01/14 06:48:53;;;;;;;6.00;0.90;;;28.10;99.90;;;;;;4974006;28;20586;-68
2023/01/14 06:51:21;;;;;;;4.20;1.43;;;28.00;99.90;;;;;;4973763;28;20179;-68
2023/01/14 06:53:48;;;;;;;8.40;1.37;;;28.10;99.90;;;;;;4973802;28;20214;-69
2023/01/14 06:56:17;;;;;;;4.70;1.00;;;27.70;99.90;;;;;;4973685;28;20210;-68
2023/01/14 06:58:49;;;;;;;8.63;1.40;;;27.40;99.90;;;;;;4956427;28;20667;-69
2023/01/14 07:01:17;;;;;;;5.37;1.17;;;27.50;99.90;;;;;;4974980;28;20183;-72
2023/01/14 07:03:44;;;;;;;3.07;1.20;;;27.20;99.90;;;;;;4977462;28;20178;-69
2023/01/14 07:06:12;;;;;;;11.33;1.20;;;27.30;99.90;;;;;;4977034;28;20580;-76
2023/01/14 07:08:39;;;;;;;7.33;1.50;;;27.40;99.90;;;;;;4977385;28;20185;-67
2023/01/14 07:11:07;;;;;;;4.07;0.97;;;27.50;99.90;;;;;;4977540;28;20569;-68
2023/01/14 07:13:34;;;;;;;4.47;1.23;;;27.70;99.90;;;;;;4977022;28;20271;-72
2023/01/14 07:16:02;;;;;;;8.87;1.30;;;27.90;99.90;;;;;;4976928;28;20227;-75
2023/01/14 07:18:29;;;;;;;3.90;1.10;;;28.00;99.90;;;;;;4977101;28;20193;-76
2023/01/14 07:20:58;;;;;;;3.67;1.23;;;27.90;99.90;;;;;;4976947;28;20171;-68
2023/01/14 07:23:27;;;;;;;4.23;0.97;;;27.80;99.90;;;;;;4976797;28;20183;-67
2023/01/14 07:25:57;;;;;;;5.17;1.00;;;27.60;99.90;;;;;;4976647;28;20751;-68
2023/01/14 07:28:27;;;;;;;7.07;1.40;;;27.40;99.90;;;;;;4976732;28;20618;-74
2023/01/14 07:30:55;;;;;;;5.93;1.53;;;27.30;99.90;;;;;;4976817;28;20178;-70
2023/01/14 07:33:22;;;;;;;5.67;1.13;;;27.20;99.90;;;;;;4976954;28;20186;-68
2023/01/14 07:35:52;;;;;;;5.20;1.13;;;27.30;99.90;;;;;;4976679;28;20176;-74
2023/01/14 07:38:20;;;;;;;4.00;0.83;;;27.40;99.90;;;;;;4976966;28;20633;-74
2023/01/14 07:40:47;;;;;;;3.13;0.90;;;27.30;99.90;;;;;;4976405;28;20186;-77
2023/01/14 07:43:14;;;;;;;6.23;1.07;;;27.30;99.90;;;;;;4976589;28;20692;-68
2023/01/14 07:45:42;;;;;;;6.00;1.03;;;27.30;99.90;;;;;;4976268;28;20210;-71
2023/01/14 07:48:10;;;;;;;6.43;1.13;;;27.30;99.90;;;;;;4976605;28;20537;-78
2023/01/14 07:50:37;;;;;;;3.13;0.80;;;27.20;99.90;;;;;;4976344;28;20175;-74
2023/01/14 07:53:05;;;;;;;4.40;0.83;;;27.10;99.90;;;;;;4976399;28;20664;-69
2023/01/14 07:55:36;;;;;;;5.03;1.20;;;26.90;99.90;;;;;;4976399;28;20195;-69
2023/01/14 07:58:04;;;;;;;8.17;1.87;;;26.80;99.90;;;;;;4976557;28;20270;-76
2023/01/14 08:00:31;;;;;;;7.00;1.33;;;26.70;99.90;;;;;;4975994;28;20175;-74
2023/01/14 08:02:58;;;;;;;3.37;0.90;;;26.50;99.90;;;;;;4976619;28;20218;-72
2023/01/14 08:05:26;;;;;;;3.13;0.90;;;26.30;99.90;;;;;;4976044;28;20207;-68
2023/01/14 08:07:53;;;;;;;3.20;0.70;;;26.30;99.90;;;;;;4976184;28;20183;-68
2023/01/14 08:10:21;;;;;;;3.80;0.70;;;26.20;99.90;;;;;;4976031;28;20193;-69
2023/01/14 08:12:49;;;;;;;4.80;0.97;;;26.10;99.90;;;;;;4974825;28;20186;-70
2023/01/14 08:15:17;;;;;;;4.60;0.80;;;26.00;99.90;;;;;;4975771;28;20310;-73
2023/01/14 08:17:45;;;;;;;3.70;0.90;;;25.70;99.90;;;;;;4958376;28;20546;-66
2023/01/14 08:20:13;;;;;;;3.17;0.80;;;25.50;99.90;;;;;;4975763;28;20171;-74
2023/01/14 08:22:40;;;;;;;4.23;1.10;;;25.30;99.90;;;;;;4975898;28;20590;-68
2023/01/14 08:25:08;;;;;;;3.00;0.90;;;25.30;99.90;;;;;;4975761;28;20218;-68
2023/01/14 08:27:36;;;;;;;5.50;0.87;;;25.20;99.90;;;;;;4975679;28;20626;-67
2023/01/14 08:30:05;;;;;;;4.33;0.90;;;25.20;99.90;;;;;;4958131;28;20553;-74
2023/01/14 08:32:32;;;;;;;3.57;0.90;;;25.00;99.90;;;;;;4975649;28;20186;-71
2023/01/14 08:34:59;;;;;;;4.37;0.90;;;24.90;99.90;;;;;;4975621;28;20182;-71
2023/01/14 08:37:27;;;;;;;3.03;0.93;;;24.80;99.90;;;;;;4975414;28;20640;-76
2023/01/14 08:39:54;;;;;;;3.83;0.97;;;24.60;99.90;;;;;;4975530;28;20191;-75
2023/01/14 08:42:22;;;;;;;7.70;0.90;;;24.50;99.90;;;;;;4975511;28;20633;-69
2023/01/14 08:44:49;;;;;;;3.50;0.83;;;24.40;99.90;;;;;;4975300;28;20182;-68
2023/01/14 08:47:17;;;;;;;4.87;1.20;;;24.40;99.90;;;;;;4975183;28;20198;-69
2023/01/14 08:49:44;;;;;;;5.37;1.07;;;24.30;99.90;;;;;;4975262;28;20182;-71
2023/01/14 08:52:11;;;;;;;8.47;2.20;;;24.30;99.90;;;;;;4975237;28;20546;-67
2023/01/14 08:54:39;;;;;;;5.30;1.27;;;24.20;99.90;;;;;;4975281;28;20214;-69
2023/01/14 08:57:06;;;;;;;5.87;1.20;;;24.20;99.90;;;;;;4974903;28;20188;-69
2023/01/14 08:59:34;;;;;;;5.73;1.33;;;24.10;99.90;;;;;;4974960;28;20182;-76
2023/01/14 09:02:01;;;;;;;5.03;1.37;;;24.00;99.90;;;;;;4957650;28;20183;-69
2023/01/14 09:04:28;;;;;;;4.87;1.10;;;24.00;99.90;;;;;;4975023;28;20238;-73
2023/01/14 09:18:04;;;;;;;7.67;1.17;;;23.80;99.90;;;;;;4975050;28;20230;-69
2023/01/14 09:20:38;;;;;;;6.00;1.07;;;23.70;99.90;;;;;;4974854;28;20230;-70
2023/01/14 09:23:08;;;;;;;3.43;1.00;;;23.70;99.90;;;;;;4974753;28;20180;-68
2023/01/14 09:25:36;;;;;;;6.03;1.17;;;23.70;99.90;;;;;;4974088;28;20211;-77
2023/01/14 09:28:03;;;;;;;7.30;1.23;;;23.60;99.90;;;;;;4974468;28;20178;-73
2023/01/14 09:30:31;;;;;;;8.67;1.60;;;23.50;99.90;;;;;;4974520;28;20266;-70
2023/01/14 09:32:59;;;;;;;10.90;1.47;;;23.50;99.90;;;;;;4974557;28;20179;-69
2023/01/14 09:35:27;;;;;;;5.20;1.23;;;23.50;99.90;;;;;;4974528;28;20178;-76
2023/01/14 09:37:55;;;;;;;7.97;1.60;;;23.50;99.90;;;;;;4974444;28;20317;-73
2023/01/14 09:40:22;;;;;;;6.97;1.30;;;23.50;99.90;;;;;;4974403;28;20207;-75
2023/01/14 09:42:52;;;;;;;6.60;1.30;;;23.40;99.90;;;;;;4973354;28;20179;-71
2023/01/14 09:45:25;;;;;;;6.00;1.37;;;23.40;99.90;;;;;;4973195;28;20217;-72
2023/01/14 09:47:55;;;;;;;4.50;1.27;;;23.40;99.90;;;;;;4973622;28;20191;-68
2023/01/14 09:50:50;;;;;;;6.23;1.40;;;23.40;99.90;;;;;;4973999;28;20187;-70
2023/01/14 09:53:39;;;;;;;5.20;1.10;;;23.30;99.90;;;;;;4953442;28;20202;-73
2023/01/14 09:56:18;;;;;;;10.47;1.40;;;23.40;99.90;;;;;;4974329;28;20178;-70
2023/01/14 09:58:55;;;;;;;8.70;1.37;;;23.40;99.90;;;;;;4974541;28;20203;-70
2023/01/14 10:01:51;;;;;;;8.57;1.40;;;23.40;99.90;;;;;;4973588;28;20221;-70
2023/01/14 10:04:55;;;;;;;3.83;1.10;;;23.40;99.90;;;;;;4953794;28;20285;-71
2023/01/14 10:11:24;;;;;;;9.87;1.50;;;23.50;99.90;;;;;;4974042;28;20541;-69
2023/01/14 10:13:54;;;;;;;11.57;1.57;;;23.40;99.90;;;;;;4973910;28;20282;-69
2023/01/14 10:16:33;;;;;;;6.20;1.80;;;23.40;99.90;;;;;;4956357;28;20252;-69
2023/01/14 10:19:06;;;;;;;4.60;0.97;;;23.50;99.90;;;;;;4974019;28;20185;-69
2023/01/14 10:22:24;;;;;;;8.67;1.20;;;23.50;99.90;;;;;;4973508;28;20282;-69
2023/01/14 10:24:51;;;;;;;4.30;1.20;;;23.50;99.90;;;;;;4894926;29;20557;-70
2023/01/14 10:27:20;;;;;;;4.27;1.20;;;23.50;99.90;;;;;;4949564;29;20200;-70
2023/01/14 10:29:48;;;;;;;7.03;1.67;;;23.40;99.90;;;;;;4937290;29;20180;-68
2023/01/14 10:32:19;;;;;;;9.13;1.40;;;23.40;99.90;;;;;;4956587;29;20543;-69
2023/01/14 10:34:55;;;;;;;8.97;1.50;;;23.40;99.90;;;;;;4957213;28;20193;-71
2023/01/14 10:37:22;;;;;;;4.93;1.37;;;23.40;99.90;;;;;;4976514;28;20285;-69
2023/01/14 10:39:52;;;;;;;5.53;1.37;;;23.40;99.90;;;;;;4977613;28;20677;-71
2023/01/14 10:42:26;;;;;;;5.50;2.10;;;23.40;99.90;;;;;;4977202;28;20527;-70
2023/01/14 10:44:55;;;;;;;8.23;1.57;;;23.30;99.90;;;;;;4977488;28;20182;-69
2023/01/14 10:47:26;;;;;;;6.27;1.37;;;23.30;99.90;;;;;;4977111;28;20186;-71
2023/01/14 10:50:05;;;;;;;5.50;1.37;;;23.20;99.90;;;;;;4959765;28;20576;-69
2023/01/14 10:52:34;;;;;;;5.53;1.60;;;23.20;99.90;;;;;;4976718;28;20677;-68
2023/01/14 10:55:16;;;;;;;4.47;1.10;;;23.20;99.90;;;;;;4977344;28;20203;-69
2023/01/14 11:01:11;;;;;;;9.97;1.53;;;23.20;99.90;;;;;;4976185;28;20609;-70
2023/01/14 11:03:47;;;;;;;6.10;1.37;;;23.30;99.90;;;;;;4976379;28;20188;-69
2023/01/14 11:06:16;;;;;;;6.93;1.73;;;23.20;99.90;;;;;;4976265;28;20222;-69
2023/01/14 11:08:47;;;;;;;9.37;5.93;;;23.20;99.90;;;;;;4976407;28;20175;-70
2023/01/14 11:11:26;;;;;;;6.67;1.80;;;23.20;99.90;;;;;;4976929;28;20313;-70
2023/01/14 11:13:54;;;;;;;8.23;2.53;;;23.20;99.90;;;;;;4976583;28;20183;-68
2023/01/14 11:16:24;;;;;;;5.37;2.10;;;23.20;99.90;;;;;;4975957;28;20350;-70
2023/01/14 11:18:56;;;;;;;5.73;1.57;;;23.20;99.90;;;;;;4976533;28;20245;-71
2023/01/14 11:21:31;;;;;;;6.13;1.20;;;23.10;99.90;;;;;;4976020;28;20222;-70
2023/01/14 11:24:01;;;;;;;6.90;1.40;;;23.10;99.90;;;;;;4976415;28;20273;-69
2023/01/14 11:26:38;;;;;;;8.00;1.40;;;23.10;99.90;;;;;;4975971;28;20781;-73
2023/01/14 11:29:17;;;;;;;5.30;1.57;;;23.10;99.90;;;;;;4976071;28;20206;-70
2023/01/14 11:31:47;;;;;;;5.37;1.13;;;23.10;99.90;;;;;;4976324;28;20179;-70
2023/01/14 11:34:42;;;;;;;11.90;5.20;;;23.00;99.90;;;;;;4975811;28;20201;-72
2023/01/14 11:37:18;;;;;;;12.83;6.43;;;22.90;99.90;;;;;;4956945;29;20191;-69
2023/01/14 11:39:50;;;;;;;12.07;2.93;;;22.90;99.90;;;;;;4957403;29;20179;-70
2023/01/14 11:42:35;;;;;;;7.03;1.20;;;23.00;99.90;;;;;;4956500;29;20676;-73
2023/01/14 11:45:12;;;;;;;8.70;1.70;;;22.90;99.90;;;;;;4956937;29;20247;-71
2023/01/14 11:47:53;;;;;;;9.00;4.63;;;23.00;99.90;;;;;;4956384;28;20187;-70
2023/01/14 11:50:25;;;;;;;7.33;1.60;;;22.90;99.90;;;;;;4956810;29;20213;-70
2023/01/14 11:53:16;;;;;;;8.33;1.43;;;22.90;99.90;;;;;;4956312;29;20212;-70
2023/01/14 11:55:47;;;;;;;9.90;3.13;;;22.90;99.90;;;;;;4956551;29;20587;-70
2023/01/14 11:58:30;;;;;;;9.17;1.90;;;22.90;99.90;;;;;;4939043;29;20219;-71
2023/01/14 12:01:17;;;;;;;8.77;1.43;;;22.90;99.90;;;;;;4956357;29;20187;-69
2023/01/14 12:04:03;;;;;;;9.73;1.40;;;22.80;99.90;;;;;;4956657;29;20197;-71
2023/01/14 12:06:50;;;;;;;5.60;1.23;;;22.80;99.90;;;;;;4956546;29;20211;-69
2023/01/14 12:09:41;;;;;;;4.77;1.10;;;22.70;99.90;;;;;;4956436;29;20183;-69
2023/01/14 12:19:16;;;;;;;7.67;1.23;;;22.70;99.90;;;;;;4956137;29;20326;-73
2023/01/14 12:22:15;;;;;;;7.23;1.17;;;22.60;99.90;;;;;;4956025;29;20184;-70
2023/01/14 12:25:01;;;;;;;3.47;0.97;;;22.40;99.90;;;;;;4955834;29;20190;-72
2023/01/14 12:27:43;;;;;;;5.23;1.33;;;22.40;99.90;;;;;;4938853;29;20184;-70
2023/01/14 12:30:26;;;;;;;5.97;1.37;;;22.40;99.90;;;;;;4956042;29;20266;-74
2023/01/14 12:33:25;;;;;;;3.77;1.20;;;22.40;99.90;;;;;;4956158;29;20183;-71
2023/01/14 12:36:36;;;;;;;4.07;1.27;;;22.40;99.90;;;;;;4955804;29;20614;-71
2023/01/14 12:47:45;;;;;;;4.90;1.50;;;22.30;99.90;;;;;;4955681;29;20729;-72
2023/01/14 12:50:15;;;;;;;5.30;1.20;;;22.40;99.90;;;;;;4955481;29;20183;-70
2023/01/14 12:52:54;;;;;;;9.83;1.43;;;22.50;99.90;;;;;;4954453;29;20251;-70
2023/01/14 12:55:27;;;;;;;5.10;1.20;;;22.40;99.90;;;;;;4938179;29;20652;-72
2023/01/14 12:57:56;;;;;;;5.47;1.10;;;22.30;99.90;;;;;;4956461;28;20663;-68
2023/01/14 13:00:36;;;;;;;7.20;1.50;;;22.30;99.90;;;;;;4954818;29;20196;-69
2023/01/14 13:03:09;;;;;;;5.73;1.27;;;22.40;99.90;;;;;;4955283;29;20190;-70
2023/01/14 13:05:41;;;;;;;7.63;1.40;;;22.40;99.90;;;;;;4955510;29;20232;-69
2023/01/14 13:08:33;;;;;;;4.23;1.10;;;22.40;99.90;;;;;;4958951;28;20186;-69
2023/01/14 13:11:12;;;;;;;5.00;1.13;;;22.30;99.90;;;;;;4973368;28;20186;-72
2023/01/14 13:13:44;;;;;;;3.37;1.10;;;22.30;99.90;;;;;;4975041;28;20174;-69
2023/01/14 13:16:32;;;;;;;5.00;1.23;;;22.20;99.90;;;;;;4974262;28;20231;-70
2023/01/14 13:19:06;;;;;;;6.70;1.37;;;22.10;99.90;;;;;;4973897;28;20189;-72
2023/01/14 13:22:04;;;;;;;4.70;1.03;;;22.10;99.90;;;;;;4956979;28;20210;-70
2023/01/14 13:24:38;;;;;;;4.57;1.10;;;22.10;99.90;;;;;;4974897;28;20248;-69
2023/01/14 13:27:41;;;;;;;7.13;1.90;;;22.00;99.90;;;;;;4974944;28;20219;-71
2023/01/14 13:30:18;;;;;;;14.83;2.00;;;22.00;99.90;;;;;;4944551;29;20199;-72
2023/01/14 13:33:02;;;;;;;5.80;1.77;;;22.00;99.90;;;;;;4938174;29;20610;-72
2023/01/14 13:35:35;;;;;;;3.87;1.53;;;22.00;99.90;;;;;;4955520;29;20185;-69
2023/01/14 13:38:14;;;;;;;7.73;2.00;;;21.90;99.90;;;;;;4966152;28;20353;-69
2023/01/14 13:40:51;;;;;;;8.60;1.10;;;21.90;99.90;;;;;;4974714;28;20204;-70
2023/01/14 13:43:27;;;;;;;7.83;1.50;;;21.90;99.90;;;;;;4974665;28;20210;-71
2023/01/14 13:45:59;;;;;;;11.13;1.93;;;21.80;99.90;;;;;;4974436;28;20206;-71
2023/01/14 13:48:42;;;;;;;5.30;1.33;;;21.80;99.90;;;;;;4974468;28;20215;-70
2023/01/14 13:51:40;;;;;;;8.13;1.30;;;21.90;99.90;;;;;;4956886;28;20665;-72
2023/01/14 13:54:36;;;;;;;6.07;1.50;;;22.00;99.90;;;;;;4974446;28;20180;-72
2023/01/14 13:57:27;;;;;;;7.20;1.30;;;22.00;99.90;;;;;;4974384;28;20180;-69
2023/01/14 14:00:01;;;;;;;8.10;1.30;;;22.10;99.90;;;;;;4973847;28;20276;-69
2023/01/14 14:02:43;;;;;;;9.50;1.40;;;22.10;99.90;;;;;;4974110;28;20195;-69
2023/01/14 14:05:27;;;;;;;7.80;1.40;;;22.00;99.90;;;;;;4957087;28;20297;-72
2023/01/14 14:08:08;;;;;;;5.13;1.43;;;21.90;99.90;;;;;;4974207;28;20674;-70
2023/01/14 14:10:46;;;;;;;3.83;1.20;;;22.00;99.90;;;;;;4976325;28;20662;-72
2023/01/14 14:16:22;;;;;;;3.77;1.00;;;22.10;99.90;;;;;;4978215;28;20269;-71
2023/01/14 14:19:01;;;;;;;3.73;1.17;;;22.00;99.90;;;;;;4978304;28;20178;-70